Terminal Aerodrome Forecast
Issued by NWS

Home | Current Version | Previous Version | Graphics & Text | Print | Product List | Glossary On
Versions: 1 2 3 4 5 6 7 8 9 10 11 12 13 14 15 16 17 18 19 20 21 22 23 24 25 26 27 28
604
FTUS43 KLOT 252226 AAC
TAFMDW
TAF AMD
KMDW 252226Z 2522/2618 18011G16KT P6SM VCSH SCT050
      TEMPO 2523/2524 4SM -SHRA BKN035
     FM260000 25011G17KT P6SM VCSH SCT015 BKN040
      TEMPO 2602/2605 4SM -SHRA BKN015
     FM260500 28012G18KT P6SM BKN080 BKN150
     FM261400 27017G26KT P6SM SCT050=

USA.gov is the U.S. government's official web portal to all federal, state and local government web resources and services.